Time;durP1;ratioP1;P1;durP2;ratioP2;P2;SDS_P1;SDS_P2;PMS_P1;PMS_P2;Temp;Humidity;BMP_temperature;BMP_pressure;BME280_temperature;BME280_humidity;BME280_pressure;Samples;Min_cycle;Max_cycle;Signal;HPM_P1;HPM_P2
2023/10/15 00:00:47;;;;;;;18.58;10.35;;;;;;;13.45;86.48;98141.72;4762648;29;20034;-96
2023/10/15 00:03:52;;;;;;;15.43;9.73;;;;;;;13.58;86.06;98163.19;4790575;29;20067;-95
2023/10/15 00:06:30;;;;;;;17.40;10.90;;;;;;;13.99;85.98;98240.50;4778136;29;20052;-93
2023/10/15 00:09:17;;;;;;;17.08;10.90;;;;;;;13.37;86.24;98138.78;4942846;23;20060;-92
2023/10/15 00:11:57;;;;;;;15.73;10.90;;;;;;;13.59;86.42;98183.97;4886445;29;20044;-94
2023/10/15 00:15:19;;;;;;;16.13;11.13;;;;;;;13.56;86.37;98170.19;4838592;29;20033;-95
2023/10/15 00:17:54;;;;;;;19.42;10.75;;;;;;;13.90;86.43;98225.41;4845960;29;20058;-92
2023/10/15 00:20:35;;;;;;;17.00;10.52;;;;;;;13.84;86.74;98233.13;4846541;29;20026;-96
2023/10/15 00:23:24;;;;;;;18.65;11.10;;;;;;;13.59;86.90;98194.97;4831658;29;20049;-93
2023/10/15 00:25:59;;;;;;;18.15;11.57;;;;;;;13.70;87.01;98208.13;4804124;29;20065;-94
2023/10/15 00:28:29;;;;;;;19.42;11.23;;;;;;;13.78;87.10;98221.66;4830994;29;20042;-94
2023/10/15 00:42:10;;;;;;;21.00;11.02;;;;;;;13.69;87.83;98223.81;4898291;29;20539;-94
2023/10/15 00:44:37;;;;;;;18.40;11.60;;;;;;;13.09;87.89;98129.94;4850201;29;20060;-95
2023/10/15 00:47:03;;;;;;;17.05;11.35;;;;;;;13.69;88.13;98210.06;4834443;29;20125;-94
2023/10/15 01:13:36;;;;;;;21.65;12.02;;;;;;;13.28;87.87;98143.72;4902249;29;20053;-94
2023/10/15 01:55:21;;;;;;;20.13;10.57;;;;;;;13.61;87.38;98194.63;4518726;23;20105;-94
2023/10/15 04:52:21;;;;;;;24.98;11.95;;;;;;;14.60;84.67;98222.41;5074037;23;20060;-95
2023/10/15 04:55:56;;;;;;;22.48;11.93;;;;;;;14.21;85.22;98164.00;5386420;23;20029;-91
2023/10/15 05:04:03;;;;;;;;;;;;;;;14.49;86.11;98240.66;4916526;29;20061;-94
2023/10/15 05:06:55;;;;;;;25.23;12.98;;;;;;;14.46;86.66;98257.91;4895560;29;19928;-94
2023/10/15 05:09:44;;;;;;;21.73;13.27;;;;;;;13.92;86.74;98154.41;4879591;29;20056;-94
2023/10/15 05:12:12;;;;;;;;;;;;;;;14.56;87.09;98247.13;4883907;29;20049;-94
2023/10/15 05:14:39;;;;;;;32.63;12.88;;;;;;;13.96;86.19;98150.56;4882223;29;19951;-94
2023/10/15 05:17:35;;;;;;;22.90;13.77;;;;;;;14.61;86.72;98248.78;4883399;29;20041;-93
2023/10/15 05:20:11;;;;;;;25.27;13.63;;;;;;;14.08;86.17;98155.13;4882978;29;20069;-93
2023/10/15 05:23:03;;;;;;;24.33;14.07;;;;;;;14.02;86.55;98145.56;4863829;29;20065;-94
2023/10/15 05:25:39;;;;;;;30.35;14.40;;;;;;;14.33;86.53;98196.78;4855512;29;20058;-95
2023/10/15 05:28:29;;;;;;;31.27;15.93;;;;;;;14.03;86.62;98142.44;4831055;29;20056;-94
2023/10/15 05:30:58;;;;;;;22.63;15.18;;;;;;;14.54;86.69;98246.69;4845899;29;20049;-93
2023/10/15 05:33:25;;;;;;;24.48;14.48;;;;;;;14.15;87.06;98181.94;4860259;29;20126;-95
2023/10/15 05:35:56;;;;;;;28.57;16.70;;;;;;;13.97;86.72;98162.34;4846063;29;20053;-95
2023/10/15 05:38:36;;;;;;;26.08;15.82;;;;;;;13.94;87.08;98165.81;4888949;23;20621;-94
2023/10/15 05:41:34;;;;;;;30.23;15.25;;;;;;;14.02;86.98;98162.06;4876032;29;20040;-93
2023/10/15 05:44:01;;;;;;;34.50;15.45;;;;;;;14.03;86.70;98158.94;4813185;29;20062;-96
2023/10/15 05:46:28;;;;;;;27.20;15.68;;;;;;;13.97;86.61;98143.94;4850056;29;20116;-93
2023/10/15 05:48:59;;;;;;;24.55;15.00;;;;;;;13.91;86.37;98144.56;4873098;29;20060;-95
2023/10/15 05:51:37;;;;;;;28.08;15.55;;;;;;;14.09;86.91;98148.44;4867818;29;20053;-94
2023/10/15 05:54:29;;;;;;;24.90;15.55;;;;;;;14.19;86.36;98156.09;4849951;29;20033;-93
2023/10/15 05:57:36;;;;;;;28.90;16.25;;;;;;;14.36;86.24;98189.75;4828388;29;20058;-93
2023/10/15 06:00:39;;;;;;;35.65;17.63;;;;;;;14.03;86.58;98152.66;4821943;29;20074;-94
2023/10/15 06:06:44;;;;;;;36.77;19.17;;;;;;;14.42;87.01;98208.34;4897833;23;20031;-94
2023/10/15 06:09:29;;;;;;;29.52;17.75;;;;;;;14.57;86.86;98229.47;4828323;29;20061;-94
2023/10/15 06:12:32;;;;;;;25.75;16.00;;;;;;;14.15;86.73;98155.25;4844576;29;20049;-94
2023/10/15 06:15:12;;;;;;;27.25;14.85;;;;;;;14.44;86.88;98194.25;4804563;29;20037;-95
2023/10/15 06:17:42;;;;;;;24.95;14.82;;;;;;;14.64;86.89;98208.75;4843098;29;20070;-93
2023/10/15 06:20:14;;;;;;;30.10;15.48;;;;;;;14.40;86.71;98191.41;4834177;29;20117;-89
2023/10/15 06:22:42;;;;;;;27.55;15.57;;;;;;;14.69;87.27;98235.94;4844036;29;20097;-88
2023/10/15 06:25:09;;;;;;;25.15;14.93;;;;;;;14.55;87.06;98190.53;4830222;29;20238;-92
2023/10/15 06:27:36;;;;;;;25.73;14.57;;;;;;;14.54;86.69;98202.69;4860604;29;20109;-89
2023/10/15 06:30:05;;;;;;;29.98;15.15;;;;;;;14.47;86.93;98205.31;4846332;29;20042;-91
2023/10/15 06:32:32;;;;;;;24.65;15.73;;;;;;;14.55;87.30;98204.28;4852093;29;20141;-90
2023/10/15 06:34:59;;;;;;;25.73;14.05;;;;;;;14.50;87.20;98215.59;4853898;29;20041;-93
2023/10/15 06:37:26;;;;;;;29.27;15.43;;;;;;;14.47;87.45;98231.97;4831215;29;20057;-92
2023/10/15 06:39:53;;;;;;;30.27;14.98;;;;;;;14.36;88.08;98229.03;4838911;29;20041;-92
2023/10/15 06:42:19;;;;;;;25.45;15.35;;;;;;;14.36;88.29;98233.75;4831222;29;20050;-91
2023/10/15 06:44:46;;;;;;;;;;;;;;;14.51;88.57;98271.38;4810350;29;20049;-88
2023/10/15 06:47:11;;;;;;;27.97;14.57;;;;;;;14.49;88.85;98251.66;4809266;29;19924;-90
2023/10/15 06:49:38;;;;;;;26.73;14.48;;;;;;;14.47;88.76;98249.28;4844579;29;20403;-90
2023/10/15 06:52:04;;;;;;;24.27;14.80;;;;;;;14.47;88.49;98235.56;4808368;29;20568;-95
2023/10/15 06:54:31;;;;;;;28.55;14.32;;;;;;;14.57;88.52;98229.47;4828201;29;20046;-91
2023/10/15 06:56:57;;;;;;;;;;;;;;;14.77;88.01;98249.47;4807876;29;20124;-90
2023/10/15 06:59:23;;;;;;;22.47;14.13;;;;;;;14.75;87.63;98243.53;4833651;29;19979;-91
2023/10/15 07:01:50;;;;;;;25.17;14.25;;;;;;;14.51;87.91;98221.91;4830922;29;20128;-91
2023/10/15 07:04:19;;;;;;;24.95;14.68;;;;;;;14.75;88.26;98242.75;4828867;29;20520;-89
2023/10/15 07:06:45;;;;;;;27.98;16.92;;;;;;;14.31;88.21;98199.91;4826533;29;20077;-94
2023/10/15 07:09:13;;;;;;;32.17;16.58;;;;;;;14.71;88.10;98250.94;4822874;29;20064;-91
2023/10/15 07:11:39;;;;;;;18.65;12.98;;;;;;;14.41;87.24;98244.47;4839562;29;20050;-94
2023/10/15 07:14:05;;;;;;;19.58;9.82;;;;;;;14.15;87.02;98225.91;4834641;29;20420;-89
2023/10/15 07:16:33;;;;;;;13.65;7.85;;;;;;;14.00;85.00;98219.31;4820672;29;20534;-89
2023/10/15 07:19:01;;;;;;;13.35;7.20;;;;;;;14.09;84.97;98258.38;4807348;29;20068;-91
2023/10/15 07:21:27;;;;;;;11.82;5.45;;;;;;;13.69;81.51;98221.06;4823480;29;20042;-92
2023/10/15 07:23:53;;;;;;;5.23;3.83;;;;;;;13.55;78.40;98256.44;4824503;29;20052;-89
2023/10/15 07:26:20;;;;;;;8.35;3.80;;;;;;;13.44;79.96;98269.13;4850379;29;20056;-89
2023/10/15 07:28:46;;;;;;;7.57;3.75;;;;;;;13.14;79.85;98253.13;4849418;29;20061;-91
2023/10/15 07:31:13;;;;;;;6.43;3.05;;;;;;;13.28;79.78;98291.94;4851811;29;20045;-88
2023/10/15 07:33:40;;;;;;;6.35;2.88;;;;;;;12.91;76.32;98274.91;4840117;29;20140;-89
2023/10/15 07:36:06;;;;;;;4.47;2.47;;;;;;;13.04;78.23;98309.31;4828373;29;20109;-92
2023/10/15 07:38:33;;;;;;;4.35;2.40;;;;;;;12.74;76.08;98289.75;4836403;29;20453;-92
2023/10/15 07:41:00;;;;;;;4.65;2.17;;;;;;;12.75;76.61;98298.78;4832998;29;20065;-89
2023/10/15 07:43:28;;;;;;;4.78;2.38;;;;;;;12.48;74.69;98275.72;4816457;29;20057;-90
2023/10/15 07:45:54;;;;;;;3.03;1.95;;;;;;;12.50;74.35;98296.19;4819177;29;20456;-89
2023/10/15 07:48:20;;;;;;;5.05;2.33;;;;;;;12.35;75.42;98291.44;4847582;29;20048;-87
2023/10/15 07:50:46;;;;;;;6.05;2.13;;;;;;;12.31;76.79;98293.28;4838783;29;20042;-90
2023/10/15 07:53:12;;;;;;;5.43;2.10;;;;;;;12.10;77.06;98269.63;4863141;29;20041;-88
2023/10/15 07:55:38;;;;;;;10.13;2.22;;;;;;;12.26;76.34;98288.09;4816887;29;20038;-89
2023/10/15 07:58:04;;;;;;;7.20;2.00;;;;;;;12.00;75.51;98264.66;4827953;29;20102;-89
2023/10/15 08:00:30;;;;;;;7.47;2.20;;;;;;;12.23;76.14;98301.31;4829747;29;20046;-91
2023/10/15 08:03:00;;;;;;;4.93;2.10;;;;;;;12.22;75.91;98293.47;4826983;29;20090;-91
2023/10/15 08:05:28;;;;;;;8.50;2.25;;;;;;;12.04;76.96;98275.72;4828831;29;20052;-91
2023/10/15 08:07:54;;;;;;;6.85;2.33;;;;;;;12.09;77.67;98272.75;4847056;29;20069;-89
2023/10/15 08:10:21;;;;;;;7.10;2.65;;;;;;;12.22;78.16;98293.47;4849887;29;20068;-91
2023/10/15 08:12:49;;;;;;;8.50;2.40;;;;;;;12.22;77.74;98291.50;4827781;29;20038;-88
2023/10/15 08:15:17;;;;;;;5.38;2.75;;;;;;;12.13;78.41;98268.16;4831812;29;20041;-91
2023/10/15 08:17:43;;;;;;;10.88;2.85;;;;;;;12.22;77.82;98288.78;4830545;29;20109;-91
2023/10/15 08:20:10;;;;;;;9.93;4.10;;;;;;;12.28;79.15;98291.25;4817727;29;20065;-91
2023/10/15 08:22:44;;;;;;;11.07;4.60;;;;;;;12.31;79.17;98291.34;4852682;29;20056;-90
2023/10/15 08:25:14;;;;;;;12.10;4.82;;;;;;;12.39;79.05;98304.13;4845617;29;20056;-92
2023/10/15 08:27:46;;;;;;;8.35;4.50;;;;;;;12.44;78.45;98301.09;4827557;29;20408;-89
2023/10/15 08:30:14;;;;;;;11.82;4.55;;;;;;;12.29;79.88;98270.94;4831752;29;20046;-90
2023/10/15 08:32:44;;;;;;;12.57;5.00;;;;;;;12.27;78.78;98268.53;4831149;29;20595;-89
2023/10/15 08:35:13;;;;;;;8.55;4.18;;;;;;;12.58;78.90;98299.91;4821186;29;20042;-88
2023/10/15 08:37:42;;;;;;;10.48;3.45;;;;;;;12.62;77.89;98306.28;4826745;29;20452;-88
2023/10/15 08:40:15;;;;;;;11.65;3.30;;;;;;;12.69;76.03;98306.47;4828433;29;20056;-90
2023/10/15 08:43:05;;;;;;;8.40;3.17;;;;;;;12.71;77.23;98312.38;4847653;29;20056;-89
2023/10/15 08:45:34;;;;;;;5.40;2.80;;;;;;;12.31;73.80;98266.69;4815834;29;20661;-88
2023/10/15 08:48:03;;;;;;;9.60;2.83;;;;;;;12.57;72.51;98318.28;4848729;29;20529;-91
2023/10/15 08:50:31;;;;;;;4.60;2.70;;;;;;;12.52;73.30;98332.25;4816095;29;20050;-87
2023/10/15 08:52:59;;;;;;;6.88;2.30;;;;;;;12.15;73.52;98293.25;4849984;29;20105;-88
2023/10/15 08:55:25;;;;;;;4.85;2.30;;;;;;;12.35;72.61;98330.63;4847641;29;20038;-89
2023/10/15 08:57:54;;;;;;;5.13;2.20;;;;;;;12.26;72.60;98327.22;4854901;29;20045;-89
2023/10/15 09:00:28;;;;;;;8.85;2.50;;;;;;;12.05;73.70;98294.53;4853731;29;20046;-90
2023/10/15 09:03:00;;;;;;;8.35;2.25;;;;;;;12.09;73.82;98308.34;4844628;29;20538;-92
2023/10/15 09:05:37;;;;;;;7.85;2.55;;;;;;;12.29;74.37;98331.22;4832634;29;20045;-88
2023/10/15 09:08:12;;;;;;;3.80;1.90;;;;;;;12.15;73.79;98309.66;4813467;29;20148;-85
2023/10/15 09:10:40;;;;;;;4.75;2.20;;;;;;;12.20;74.11;98310.22;4847917;29;20065;-89
2023/10/15 09:13:16;;;;;;;8.18;2.45;;;;;;;12.27;74.31;98314.31;4848125;29;20042;-90
2023/10/15 09:15:47;;;;;;;7.50;2.50;;;;;;;12.01;74.45;98270.94;4834628;29;20053;-89
2023/10/15 09:18:17;;;;;;;7.40;2.67;;;;;;;11.75;72.14;98231.84;4832035;29;20046;-89
2023/10/15 09:20:50;;;;;;;10.45;2.63;;;;;;;11.54;74.23;98220.28;4846033;29;20503;-88
2023/10/15 09:23:21;;;;;;;6.55;2.90;;;;;;;11.93;75.14;98270.72;4846557;29;20105;-89
2023/10/15 09:25:55;;;;;;;12.85;3.50;;;;;;;11.98;74.97;98248.56;4819275;29;20045;-90
2023/10/15 09:28:23;;;;;;;13.90;3.60;;;;;;;12.26;75.75;98318.22;4829178;29;20613;-88
2023/10/15 09:30:51;;;;;;;14.55;3.67;;;;;;;12.04;76.23;98275.72;4842162;29;20611;-88
2023/10/15 09:33:27;;;;;;;12.38;3.50;;;;;;;11.82;75.36;98236.75;4844683;29;20049;-89
2023/10/15 09:35:53;;;;;;;16.33;3.50;;;;;;;12.17;75.51;98267.09;4830141;29;20037;-90
2023/10/15 09:38:21;;;;;;;6.60;3.08;;;;;;;11.91;75.54;98226.44;4862612;29;20056;-89
2023/10/15 09:40:47;;;;;;;11.45;3.85;;;;;;;11.79;75.79;98215.53;4844916;29;20049;-89
2023/10/15 09:43:14;;;;;;;13.70;3.03;;;;;;;12.35;75.17;98310.63;4828230;29;20041;-89
2023/10/15 09:45:44;;;;;;;;;;;;;;;12.28;74.90;98324.13;4837702;29;20591;-89
2023/10/15 09:48:14;;;;;;;9.98;2.75;;;;;;;11.63;76.08;98231.88;4828870;29;19950;-87
2023/10/15 09:50:42;;;;;;;10.43;3.10;;;;;;;11.76;76.05;98260.03;4839894;29;20156;-88
2023/10/15 09:53:12;;;;;;;7.20;2.95;;;;;;;12.17;76.13;98327.38;4824590;29;20110;-88
2023/10/15 09:55:40;;;;;;;12.15;3.60;;;;;;;12.02;76.40;98287.03;4812681;29;20050;-89
2023/10/15 09:58:15;;;;;;;11.23;3.20;;;;;;;11.86;76.12;98264.25;4816470;29;20420;-90
2023/10/15 10:03:49;;;;;;;20.55;4.75;;;;;;;12.25;76.83;98317.44;4844298;29;20052;-89
2023/10/15 10:06:43;;;;;;;8.50;3.38;;;;;;;12.30;76.13;98328.13;4846772;29;20084;-91
2023/10/15 10:09:16;;;;;;;18.38;4.43;;;;;;;12.34;76.05;98320.00;4866648;29;20053;-90
2023/10/15 10:12:00;;;;;;;15.50;4.60;;;;;;;11.88;77.16;98245.53;4858081;29;20037;-94
2023/10/15 10:14:52;;;;;;;10.05;4.00;;;;;;;12.39;77.85;98312.34;4849845;29;20049;-92
2023/10/15 10:17:21;;;;;;;12.35;3.47;;;;;;;12.27;74.42;98265.78;4835963;29;20079;-92
2023/10/15 10:19:54;;;;;;;16.98;3.78;;;;;;;12.64;75.03;98299.28;4866620;29;20037;-93
2023/10/15 10:22:24;;;;;;;19.73;4.43;;;;;;;12.78;76.43;98300.81;4822689;29;20042;-91
2023/10/15 10:25:03;;;;;;;17.60;4.20;;;;;;;12.25;77.37;98215.22;4820965;29;20053;-90
2023/10/15 10:27:42;;;;;;;10.32;3.60;;;;;;;12.60;76.34;98281.94;4789517;29;20993;-91
2023/10/15 10:30:46;;;;;;;10.93;3.28;;;;;;;12.31;75.23;98263.94;4825754;29;20050;-91
2023/10/15 10:33:46;;;;;;;13.05;3.05;;;;;;;12.29;75.44;98252.56;4740044;30;20508;-91
2023/10/15 10:36:31;;;;;;;17.73;4.05;;;;;;;12.43;75.68;98274.84;4766798;29;20053;-90
2023/10/15 10:39:07;;;;;;;12.07;3.58;;;;;;;12.65;76.11;98305.59;4754984;29;20028;-91
2023/10/15 10:41:54;;;;;;;9.82;3.20;;;;;;;12.53;75.57;98313.88;4771344;29;20036;-87
2023/10/15 10:44:23;;;;;;;8.93;3.85;;;;;;;12.63;76.08;98324.31;4763958;29;20095;-88
2023/10/15 10:46:52;;;;;;;13.75;2.97;;;;;;;12.44;75.39;98308.53;4769562;29;20036;-92
2023/10/15 10:49:37;;;;;;;10.63;3.33;;;;;;;12.38;75.75;98288.81;4776575;30;20085;-88
2023/10/15 10:52:24;;;;;;;14.52;3.70;;;;;;;12.46;75.17;98289.81;4771540;30;20055;-88
2023/10/15 10:54:55;;;;;;;14.52;5.68;;;;;;;11.86;75.72;98198.53;4754361;30;20069;-88
2023/10/15 10:57:31;;;;;;;33.03;12.90;;;;;;;12.37;75.94;98284.47;4727358;30;20056;-89
2023/10/15 11:00:23;;;;;;;20.50;11.68;;;;;;;12.04;76.92;98221.72;4749696;30;20145;-91
2023/10/15 11:03:09;;;;;;;13.02;3.58;;;;;;;12.37;75.50;98283.69;4773198;30;20146;-90
2023/10/15 11:05:42;;;;;;;7.45;3.53;;;;;;;12.39;75.42;98276.72;4766050;30;20116;-90
2023/10/15 11:08:28;;;;;;;8.20;2.90;;;;;;;12.62;75.71;98304.34;4768419;30;20047;-90
2023/10/15 11:10:59;;;;;;;44.15;15.68;;;;;;;12.38;75.90;98246.91;4827001;29;20056;-89
2023/10/15 11:13:40;;;;;;;26.90;11.93;;;;;;;12.26;76.75;98219.59;4846074;29;20034;-89
2023/10/15 11:16:10;;;;;;;22.08;8.82;;;;;;;12.35;76.00;98215.53;4847756;29;20057;-88
2023/10/15 11:18:45;;;;;;;17.50;7.18;;;;;;;12.44;76.32;98240.00;4844764;29;20180;-87
2023/10/15 11:21:17;;;;;;;13.55;5.00;;;;;;;12.48;76.34;98257.34;4833374;29;20059;-90
2023/10/15 11:23:48;;;;;;;8.95;3.28;;;;;;;12.33;76.54;98255.38;4862274;29;20070;-86
2023/10/15 11:26:15;;;;;;;10.63;3.42;;;;;;;12.65;77.12;98302.84;4855151;29;20061;-87
2023/10/15 11:28:41;;;;;;;10.18;3.38;;;;;;;12.17;76.68;98242.44;4846622;29;20465;-89
2023/10/15 11:31:08;;;;;;;9.75;3.40;;;;;;;12.47;76.50;98272.19;4849270;29;20046;-87
2023/10/15 11:33:34;;;;;;;13.75;3.53;;;;;;;12.46;76.25;98265.13;4837006;29;20041;-87
2023/10/15 11:36:06;;;;;;;9.25;3.40;;;;;;;12.82;77.05;98324.44;4831910;29;20117;-87
2023/10/15 11:38:37;;;;;;;19.30;4.38;;;;;;;12.50;76.14;98265.22;4871500;29;20070;-86
2023/10/15 11:41:07;;;;;;;9.60;3.78;;;;;;;12.69;76.47;98312.75;4868045;29;20038;-86
2023/10/15 11:43:36;;;;;;;11.00;3.90;;;;;;;12.43;76.49;98272.13;4852154;29;20084;-88
2023/10/15 11:46:07;;;;;;;23.88;7.35;;;;;;;12.46;76.53;98267.88;4868972;29;20132;-86
2023/10/15 11:48:37;;;;;;;11.93;4.65;;;;;;;12.63;76.73;98289.47;4860517;29;20058;-86
2023/10/15 11:51:06;;;;;;;12.95;4.07;;;;;;;12.62;76.29;98274.19;4854983;29;20530;-86
2023/10/15 11:53:34;;;;;;;11.00;3.85;;;;;;;13.06;75.65;98320.75;4868251;29;20094;-87
2023/10/15 11:56:02;;;;;;;10.98;3.13;;;;;;;12.72;74.83;98272.06;4864572;29;20044;-85
2023/10/15 11:58:31;;;;;;;14.77;4.40;;;;;;;12.87;73.34;98302.22;4878042;29;20054;-86
2023/10/15 12:00:58;;;;;;;12.02;4.40;;;;;;;12.77;73.64;98308.25;4862889;29;20389;-86
2023/10/15 12:03:25;;;;;;;14.45;4.53;;;;;;;12.90;73.57;98322.69;4851638;29;20105;-89
2023/10/15 12:05:55;;;;;;;11.77;3.70;;;;;;;12.64;73.34;98285.56;4825793;29;20057;-88
2023/10/15 12:08:21;;;;;;;13.63;3.80;;;;;;;13.02;73.25;98330.84;4871768;29;20070;-86
2023/10/15 12:10:49;;;;;;;17.45;3.92;;;;;;;12.94;73.27;98316.13;4869682;29;20158;-87
2023/10/15 12:13:15;;;;;;;13.68;3.92;;;;;;;12.77;73.51;98289.03;4821648;29;20045;-87
2023/10/15 12:15:42;;;;;;;12.93;3.80;;;;;;;12.84;72.67;98300.19;4838387;29;20054;-89
2023/10/15 12:18:09;;;;;;;8.93;3.55;;;;;;;13.03;73.07;98351.63;4852390;29;20050;-86
2023/10/15 12:20:36;;;;;;;12.98;3.28;;;;;;;12.82;73.00;98318.19;4867977;29;20535;-88
2023/10/15 12:23:03;;;;;;;11.00;3.33;;;;;;;12.52;72.64;98257.47;4864820;29;20061;-86
2023/10/15 12:25:30;;;;;;;7.53;2.78;;;;;;;13.01;72.58;98320.19;4866320;29;20045;-85
2023/10/15 12:27:59;;;;;;;8.98;3.00;;;;;;;12.52;72.67;98255.50;4841913;29;20037;-88
2023/10/15 12:30:28;;;;;;;16.05;3.00;;;;;;;13.03;72.74;98315.16;4874185;29;20052;-86
2023/10/15 12:33:03;;;;;;;5.38;2.58;;;;;;;12.86;72.54;98284.19;4845187;29;20071;-87
2023/10/15 12:35:33;;;;;;;11.05;3.05;;;;;;;12.68;72.57;98266.47;4859730;29;20531;-90
2023/10/15 12:38:02;;;;;;;9.63;3.17;;;;;;;12.87;72.38;98279.50;4838969;29;20543;-88
2023/10/15 12:40:38;;;;;;;13.37;3.57;;;;;;;12.89;71.85;98283.50;4869804;29;20045;-88
2023/10/15 12:43:17;;;;;;;12.98;3.22;;;;;;;12.79;71.88;98264.81;4867802;29;20108;-88
2023/10/15 12:45:49;;;;;;;14.82;5.75;;;;;;;12.91;72.58;98272.97;4876062;29;20140;-90
2023/10/15 12:48:18;;;;;;;9.95;4.10;;;;;;;12.95;72.23;98297.75;4856193;29;20132;-86
2023/10/15 12:50:51;;;;;;;13.68;3.72;;;;;;;12.94;72.37;98290.66;4857830;29;20077;-87
2023/10/15 12:53:19;;;;;;;13.57;3.50;;;;;;;12.85;73.18;98279.06;4854311;29;20046;-87
2023/10/15 12:55:45;;;;;;;11.80;3.58;;;;;;;12.84;72.48;98299.41;4876398;29;20057;-87
2023/10/15 12:58:11;;;;;;;15.80;3.88;;;;;;;13.06;72.53;98345.44;4852140;29;20048;-86
2023/10/15 13:00:43;;;;;;;14.23;4.03;;;;;;;12.79;72.59;98286.75;4868315;29;20044;-86
2023/10/15 13:03:10;;;;;;;14.40;3.50;;;;;;;12.77;74.00;98258.09;4848165;29;20072;-88
2023/10/15 13:05:39;;;;;;;10.57;3.67;;;;;;;12.53;72.56;98237.91;4866497;29;20041;-86
2023/10/15 13:08:08;;;;;;;12.73;3.53;;;;;;;12.98;73.09;98316.25;4866987;29;20067;-87
2023/10/15 13:10:36;;;;;;;11.23;3.60;;;;;;;12.99;73.27;98309.59;4863979;29;20052;-86
2023/10/15 13:13:03;;;;;;;7.25;3.60;;;;;;;12.95;73.08;98341.63;5450676;23;20052;-87
2023/10/15 13:15:34;;;;;;;9.88;3.63;;;;;;;12.80;73.44;98350.63;4924948;29;20100;-88
2023/10/15 13:18:00;;;;;;;11.50;4.30;;;;;;;12.57;73.00;98334.75;4908961;29;20040;-90
2023/10/15 13:20:26;;;;;;;13.02;3.75;;;;;;;12.65;73.17;98347.50;4917175;29;20047;-88
2023/10/15 13:22:53;;;;;;;11.20;4.07;;;;;;;12.62;73.66;98336.44;4905770;29;20125;-86
2023/10/15 13:25:22;;;;;;;14.93;4.25;;;;;;;12.87;73.76;98368.06;4921821;29;20048;-89
2023/10/15 13:27:48;;;;;;;13.25;3.95;;;;;;;12.70;73.27;98319.03;4905873;29;20044;-84
2023/10/15 13:30:17;;;;;;;13.20;3.40;;;;;;;12.92;72.48;98347.81;4909101;29;20123;-85
2023/10/15 13:32:47;;;;;;;10.88;3.42;;;;;;;12.87;73.14;98356.28;4908181;29;20384;-89
2023/10/15 13:35:15;;;;;;;11.13;3.75;;;;;;;12.51;73.36;98321.63;4912826;29;20048;-85
2023/10/15 13:37:46;;;;;;;7.82;3.10;;;;;;;12.73;73.64;98367.69;4892528;29;20044;-89
2023/10/15 13:40:15;;;;;;;10.57;3.95;;;;;;;12.49;72.92;98310.25;4902880;29;20036;-85
2023/10/15 13:42:47;;;;;;;14.60;3.88;;;;;;;12.26;73.02;98260.69;4917533;29;20639;-86
2023/10/15 13:45:17;;;;;;;12.23;4.07;;;;;;;12.78;73.41;98331.78;4903394;29;20036;-85
2023/10/15 13:47:46;;;;;;;13.43;3.95;;;;;;;12.64;73.71;98315.75;4916555;29;20056;-89
2023/10/15 13:50:19;;;;;;;12.27;3.85;;;;;;;12.61;73.55;98310.94;4901214;29;20048;-87
2023/10/15 13:52:47;;;;;;;12.40;4.03;;;;;;;12.59;73.77;98309.72;4917996;29;20048;-88
2023/10/15 13:55:19;;;;;;;14.10;3.70;;;;;;;12.77;73.31;98332.91;4920757;29;20123;-84
2023/10/15 13:57:45;;;;;;;12.65;4.45;;;;;;;12.44;73.40;98295.63;4920278;29;20033;-83
2023/10/15 14:00:19;;;;;;;12.68;3.97;;;;;;;12.40;73.12;98291.19;5829892;23;20019;-93
2023/10/15 14:02:48;;;;;;;9.88;3.88;;;;;;;12.39;73.27;98293.16;4838276;29;20093;-91
2023/10/15 14:05:18;;;;;;;14.52;4.65;;;;;;;12.73;73.56;98347.69;4867679;29;20468;-85
2023/10/15 14:07:46;;;;;;;9.48;3.58;;;;;;;12.57;72.89;98331.22;4851708;29;20042;-87
2023/10/15 14:10:12;;;;;;;17.88;4.07;;;;;;;12.63;72.90;98346.25;4868956;29;20053;-90
2023/10/15 14:13:02;;;;;;;15.25;4.00;;;;;;;12.60;72.75;98346.97;4873677;29;20095;-90
2023/10/15 14:15:33;;;;;;;13.05;4.50;;;;;;;12.39;73.28;98322.50;4862960;29;20118;-89
2023/10/15 14:18:00;;;;;;;10.38;4.40;;;;;;;12.46;73.05;98320.75;4826882;29;20498;-89
2023/10/15 14:20:28;;;;;;;12.77;3.83;;;;;;;12.25;73.10;98287.28;4854525;29;20042;-89
2023/10/15 14:23:00;;;;;;;14.98;4.40;;;;;;;12.08;72.77;98260.16;4871772;29;20046;-91
2023/10/15 14:25:36;;;;;;;14.20;3.53;;;;;;;12.43;73.87;98331.63;4862524;29;20060;-89
2023/10/15 14:28:56;;;;;;;8.02;3.22;;;;;;;12.46;73.35;98339.16;4882206;29;20053;-89
2023/10/15 14:31:50;;;;;;;16.08;3.92;;;;;;;12.41;73.46;98342.13;4862736;29;20113;-91
2023/10/15 14:34:44;;;;;;;11.85;4.07;;;;;;;12.45;73.87;98330.13;4880142;29;20153;-88
2023/10/15 14:37:12;;;;;;;9.13;3.75;;;;;;;12.40;73.93;98319.41;4858605;29;20058;-87
2023/10/15 14:39:38;;;;;;;15.18;3.92;;;;;;;12.38;74.60;98338.16;4873827;29;20052;-89
2023/10/15 14:42:06;;;;;;;12.07;3.72;;;;;;;11.83;74.47;98276.66;4852936;29;20054;-87
2023/10/15 14:44:34;;;;;;;11.55;3.72;;;;;;;11.99;74.67;98315.91;4866613;29;20045;-90
2023/10/15 14:47:02;;;;;;;14.32;4.18;;;;;;;12.23;74.96;98336.16;4875948;29;20048;-88
2023/10/15 14:49:34;;;;;;;9.55;3.67;;;;;;;12.28;74.36;98355.06;4873904;29;20050;-90
2023/10/15 14:52:27;;;;;;;9.13;3.78;;;;;;;12.26;74.60;98357.38;4844522;29;20101;-90
2023/10/15 14:54:54;;;;;;;14.20;3.55;;;;;;;12.06;74.82;98329.00;4858563;29;20049;-87
2023/10/15 14:57:22;;;;;;;8.52;3.60;;;;;;;11.93;75.11;98322.75;4872083;29;20070;-91
2023/10/15 14:59:58;;;;;;;;;;;;;;;12.23;74.91;98377.25;4856845;29;20077;-90
2023/10/15 15:03:20;;;;;;;12.27;3.47;;;;;;;12.20;75.33;98375.19;4825756;29;19932;-89
2023/10/15 15:05:50;;;;;;;10.02;3.90;;;;;;;12.30;75.67;98373.91;4823968;29;20122;-87
2023/10/15 15:08:19;;;;;;;13.43;4.35;;;;;;;12.36;75.32;98383.50;4810161;29;20070;-90
2023/10/15 15:10:48;;;;;;;13.18;4.38;;;;;;;12.24;75.13;98381.56;4855133;29;20042;-90
2023/10/15 15:13:15;;;;;;;10.95;3.92;;;;;;;12.25;75.44;98410.59;4832965;29;20637;-89
2023/10/15 15:15:43;;;;;;;12.10;4.03;;;;;;;12.21;75.45;98410.44;4842036;29;20050;-90
2023/10/15 15:18:14;;;;;;;18.13;4.68;;;;;;;11.98;75.86;98371.81;4841715;29;20054;-89
2023/10/15 15:20:43;;;;;;;14.23;4.72;;;;;;;11.95;76.17;98363.47;4840845;29;20575;-86
2023/10/15 15:23:11;;;;;;;14.55;4.85;;;;;;;12.09;76.04;98393.25;4854956;29;20143;-87
2023/10/15 15:25:37;;;;;;;13.52;5.25;;;;;;;11.71;75.96;98342.38;4842924;29;20049;-88
2023/10/15 15:28:27;;;;;;;15.93;5.57;;;;;;;12.11;76.49;98410.94;4839812;29;20121;-89
2023/10/15 15:30:57;;;;;;;11.70;5.03;;;;;;;11.83;76.71;98377.19;4836991;29;20054;-88
2023/10/15 15:33:35;;;;;;;12.48;4.50;;;;;;;11.73;76.83;98367.50;4832360;29;20049;-88
2023/10/15 15:36:29;;;;;;;12.63;4.25;;;;;;;11.91;77.12;98387.22;4847317;29;20050;-88
2023/10/15 15:38:59;;;;;;;12.20;4.72;;;;;;;11.92;76.81;98386.91;4862088;29;20062;-86
2023/10/15 15:41:32;;;;;;;13.93;5.25;;;;;;;11.79;77.01;98365.28;4890392;29;20540;-88
2023/10/15 15:44:08;;;;;;;10.48;5.10;;;;;;;12.13;76.66;98425.09;4881737;29;20033;-86
2023/10/15 15:46:59;;;;;;;13.80;5.20;;;;;;;11.70;77.00;98359.97;4865760;29;20034;-92
2023/10/15 15:49:29;;;;;;;13.27;4.93;;;;;;;11.60;77.06;98341.28;4847922;29;20054;-93
2023/10/15 15:51:58;;;;;;;17.58;5.00;;;;;;;11.68;77.11;98373.97;4874239;29;20046;-87
2023/10/15 15:57:56;;;;;;;21.20;4.90;;;;;;;11.51;77.73;98347.63;4831965;29;20133;-89
2023/10/15 16:00:24;;;;;;;12.38;4.57;;;;;;;11.87;77.90;98391.81;4837366;29;20144;-87
2023/10/15 16:02:50;;;;;;;9.98;3.83;;;;;;;11.82;77.66;98395.56;4837263;29;20394;-89
2023/10/15 16:05:17;;;;;;;11.15;4.22;;;;;;;11.86;78.43;98412.91;4836425;29;20567;-88
2023/10/15 16:07:47;;;;;;;13.88;3.97;;;;;;;12.06;78.26;98437.78;4823975;29;20075;-88
2023/10/15 16:10:41;;;;;;;11.60;4.55;;;;;;;12.03;78.39;98441.22;4843294;29;20064;-89
2023/10/15 16:13:08;;;;;;;11.05;4.25;;;;;;;11.47;78.55;98363.16;4821202;29;20544;-89
2023/10/15 16:15:38;;;;;;;;;;;;;;;11.99;78.77;98444.63;4819850;29;20051;-87
2023/10/15 16:18:07;;;;;;;8.70;3.95;;;;;;;11.92;79.11;98438.94;4822186;29;19925;-90